createdAt,value
2022-12-25T00:00:18.408Z,5.63
2022-12-25T00:01:23.623Z,5.63
2022-12-25T00:02:26.743Z,5.69
2022-12-25T00:04:03.314Z,5.69
2022-12-25T00:05:06.676Z,5.69
2022-12-25T00:06:09.515Z,5.69
2022-12-25T00:07:44.059Z,5.69
2022-12-25T00:08:46.914Z,5.69
2022-12-25T00:09:49.683Z,5.69
2022-12-25T00:11:31.401Z,5.69
2022-12-25T00:12:34.310Z,5.69
2022-12-25T00:13:37.024Z,5.69
2022-12-25T00:15:11.688Z,5.69
2022-12-25T00:16:14.525Z,5.75
2022-12-25T00:17:17.840Z,5.75
2022-12-25T00:18:52.602Z,5.75
2022-12-25T00:19:55.409Z,5.81
2022-12-25T00:20:58.257Z,5.81
2022-12-25T00:22:32.898Z,5.81
2022-12-25T00:23:35.845Z,5.81
2022-12-25T00:24:38.744Z,5.81
2022-12-25T00:26:13.758Z,5.81
2022-12-25T00:27:16.671Z,5.81
2022-12-25T00:28:19.613Z,5.81
2022-12-25T00:29:54.351Z,5.81
2022-12-25T00:30:57.107Z,5.81
2022-12-25T00:32:00.728Z,5.81
2022-12-25T00:33:35.671Z,5.81
2022-12-25T00:34:38.571Z,5.81
2022-12-25T00:35:41.618Z,5.81
2022-12-25T00:37:22.695Z,5.75
2022-12-25T00:38:25.576Z,5.75
2022-12-25T00:39:28.484Z,5.75
2022-12-25T00:41:03.189Z,5.75
2022-12-25T00:42:06.164Z,5.75
2022-12-25T00:43:08.857Z,5.75
2022-12-25T00:44:43.471Z,5.69
2022-12-25T00:45:46.356Z,5.69
2022-12-25T00:46:49.823Z,5.69
2022-12-25T00:48:25.258Z,5.69
2022-12-25T00:49:28.077Z,5.69
2022-12-25T00:50:30.907Z,5.69
2022-12-25T00:52:05.564Z,5.69
2022-12-25T00:53:08.402Z,5.69
2022-12-25T00:54:11.319Z,5.69
2022-12-25T00:55:45.897Z,5.69
2022-12-25T00:56:48.714Z,5.69
2022-12-25T00:57:51.615Z,5.69
2022-12-25T00:59:26.176Z,5.69
2022-12-25T01:00:11.798Z,5.69
2022-12-25T01:01:14.950Z,5.69
2022-12-25T01:02:19.206Z,5.75
2022-12-25T01:03:55.912Z,5.75
2022-12-25T01:04:58.657Z,5.75
2022-12-25T01:06:01.559Z,5.75
2022-12-25T01:07:36.268Z,5.75
2022-12-25T01:08:40.570Z,5.75
2022-12-25T01:09:43.476Z,5.75
2022-12-25T01:11:18.086Z,5.81
2022-12-25T01:12:20.893Z,5.81
2022-12-25T01:13:23.786Z,5.81
2022-12-25T01:14:58.406Z,5.81
2022-12-25T01:16:01.332Z,5.81
2022-12-25T01:17:04.702Z,5.81
2022-12-25T01:18:47.938Z,5.81
2022-12-25T01:19:50.648Z,5.81
2022-12-25T01:20:53.357Z,5.81
2022-12-25T01:22:28.005Z,5.81
2022-12-25T01:23:30.713Z,5.81
2022-12-25T01:24:33.609Z,5.88
2022-12-25T01:26:08.273Z,5.88
2022-12-25T01:27:11.218Z,5.88
2022-12-25T01:28:14.083Z,5.88
2022-12-25T01:29:48.643Z,5.88
2022-12-25T01:30:51.508Z,5.88
2022-12-25T01:31:54.593Z,5.88
2022-12-25T01:33:29.759Z,5.94
2022-12-25T01:34:32.731Z,5.94
2022-12-25T01:35:42.337Z,5.94
2022-12-25T01:37:17.121Z,5.94
2022-12-25T01:38:19.857Z,5.94
2022-12-25T01:39:22.748Z,5.94
2022-12-25T01:40:57.493Z,5.94
2022-12-25T01:42:00.344Z,5.94
2022-12-25T01:43:03.189Z,5.94
2022-12-25T01:44:44.609Z,6.00
2022-12-25T01:45:47.547Z,6.00
2022-12-25T01:46:50.923Z,6.00
2022-12-25T01:48:25.745Z,6.00
2022-12-25T01:49:28.472Z,6.06
2022-12-25T01:50:31.277Z,6.06
2022-12-25T01:52:05.948Z,6.06
2022-12-25T01:53:15.653Z,6.13
2022-12-25T01:54:18.588Z,6.19
2022-12-25T01:55:53.122Z,6.19
2022-12-25T01:56:56.026Z,6.19
2022-12-25T01:57:58.783Z,6.19
2022-12-25T01:59:33.460Z,6.19
2022-12-25T02:00:12.489Z,6.25
2022-12-25T02:01:15.496Z,6.25
2022-12-25T02:02:19.647Z,6.25
2022-12-25T02:03:55.747Z,6.25
2022-12-25T02:04:58.489Z,6.25
2022-12-25T02:06:01.436Z,6.25
2022-12-25T02:07:36.112Z,6.25
2022-12-25T02:08:38.885Z,6.25
2022-12-25T02:09:41.813Z,6.25
2022-12-25T02:11:16.346Z,6.25
2022-12-25T02:12:19.198Z,6.25
2022-12-25T02:13:21.900Z,6.25
2022-12-25T02:15:01.162Z,6.25
2022-12-25T02:16:07.644Z,6.25
2022-12-25T02:17:33.706Z,6.31
2022-12-25T02:19:08.507Z,6.31
2022-12-25T02:20:11.296Z,6.31
2022-12-25T02:21:14.235Z,6.31
2022-12-25T02:22:48.908Z,6.31
2022-12-25T02:23:51.793Z,6.31
2022-12-25T02:24:54.644Z,6.31
2022-12-25T02:26:29.268Z,6.31
2022-12-25T02:27:32.146Z,6.38
2022-12-25T02:28:35.105Z,6.38
2022-12-25T02:30:15.126Z,6.38
2022-12-25T02:31:17.980Z,6.38
2022-12-25T02:32:21.342Z,6.38
2022-12-25T02:33:57.272Z,6.38
2022-12-25T02:35:00.883Z,6.44
2022-12-25T02:36:03.692Z,6.44
2022-12-25T02:37:38.395Z,6.44
2022-12-25T02:38:41.228Z,6.44
2022-12-25T02:39:44.204Z,6.44
2022-12-25T02:41:18.875Z,6.50
2022-12-25T02:42:21.762Z,6.50
2022-12-25T02:43:24.468Z,6.50
2022-12-25T02:44:59.091Z,6.56
2022-12-25T02:46:01.896Z,6.56
2022-12-25T02:47:05.377Z,6.56
2022-12-25T02:48:39.986Z,6.50
2022-12-25T02:49:42.805Z,6.56
2022-12-25T02:50:45.680Z,6.56
2022-12-25T02:52:20.231Z,6.56
2022-12-25T02:53:23.058Z,6.50
2022-12-25T02:54:25.926Z,6.50
2022-12-25T02:56:00.562Z,6.50
2022-12-25T02:57:03.452Z,6.50
2022-12-25T02:58:06.240Z,6.44
2022-12-25T02:59:40.911Z,6.44
2022-12-25T03:00:11.985Z,6.44
2022-12-25T03:01:14.881Z,6.44
2022-12-25T03:02:19.009Z,6.44
2022-12-25T03:03:54.065Z,6.38
2022-12-25T03:04:56.887Z,6.38
2022-12-25T03:05:59.771Z,6.38
2022-12-25T03:07:34.388Z,6.31
2022-12-25T03:08:37.301Z,6.31
2022-12-25T03:09:40.151Z,6.31
2022-12-25T03:11:14.721Z,6.31
2022-12-25T03:12:17.493Z,6.25
2022-12-25T03:13:20.261Z,6.25
2022-12-25T03:14:54.878Z,6.25
2022-12-25T03:15:57.724Z,6.25
2022-12-25T03:17:00.893Z,6.25
2022-12-25T03:18:35.835Z,6.25
2022-12-25T03:19:38.593Z,6.25
2022-12-25T03:20:41.451Z,6.25
2022-12-25T03:22:16.001Z,6.25
2022-12-25T03:23:18.895Z,6.25
2022-12-25T03:24:21.771Z,6.31
2022-12-25T03:25:56.459Z,6.31
2022-12-25T03:26:59.330Z,6.31
2022-12-25T03:28:02.091Z,6.31
2022-12-25T03:29:36.898Z,6.31
2022-12-25T03:30:39.809Z,6.38
2022-12-25T03:31:43.112Z,6.38
2022-12-25T03:33:43.947Z,6.38
2022-12-25T03:34:48.019Z,6.38
2022-12-25T03:35:50.912Z,6.38
2022-12-25T03:37:25.429Z,6.38
2022-12-25T03:38:28.147Z,6.44
2022-12-25T03:39:30.923Z,6.44
2022-12-25T03:41:05.535Z,6.50
2022-12-25T03:42:08.618Z,6.50
2022-12-25T03:43:11.470Z,6.56
2022-12-25T03:44:46.055Z,6.56
2022-12-25T03:45:48.973Z,6.56
2022-12-25T03:46:52.594Z,6.56
2022-12-25T03:48:27.198Z,6.56
2022-12-25T03:49:29.921Z,6.56
2022-12-25T03:50:32.906Z,6.56
2022-12-25T03:52:07.640Z,6.56
2022-12-25T03:53:10.377Z,6.56
2022-12-25T03:54:13.204Z,6.56
2022-12-25T03:55:47.702Z,6.63
2022-12-25T03:56:50.632Z,6.63
2022-12-25T03:57:53.464Z,6.63
2022-12-25T03:59:28.094Z,6.63
2022-12-25T04:00:12.656Z,6.69
2022-12-25T04:01:15.542Z,6.69
2022-12-25T04:02:20.300Z,6.69
2022-12-25T04:03:56.544Z,6.69
2022-12-25T04:04:59.398Z,6.69
2022-12-25T04:06:02.244Z,6.69
2022-12-25T04:07:36.836Z,6.75
2022-12-25T04:08:39.818Z,6.75
2022-12-25T04:09:42.558Z,6.75
2022-12-25T04:11:17.204Z,6.81
2022-12-25T04:12:20.246Z,6.81
2022-12-25T04:13:23.070Z,6.88
2022-12-25T04:14:57.820Z,6.88
2022-12-25T04:16:00.702Z,6.88
2022-12-25T04:17:04.003Z,6.88
2022-12-25T04:18:38.787Z,6.94
2022-12-25T04:19:41.539Z,6.88
2022-12-25T04:20:44.394Z,6.88
2022-12-25T04:22:18.949Z,6.94
2022-12-25T04:23:21.711Z,6.94
2022-12-25T04:24:24.487Z,6.94
2022-12-25T04:25:59.090Z,6.94
2022-12-25T04:27:02.019Z,6.94
2022-12-25T04:28:04.981Z,7.00
2022-12-25T04:29:41.004Z,7.00
2022-12-25T04:30:43.901Z,6.94
2022-12-25T04:31:47.079Z,7.00
2022-12-25T04:33:21.830Z,6.94
2022-12-25T04:34:24.547Z,7.00
2022-12-25T04:35:27.389Z,6.94
2022-12-25T04:37:02.255Z,6.94
2022-12-25T04:38:04.960Z,6.94
2022-12-25T04:39:07.845Z,6.94
2022-12-25T04:40:42.672Z,6.94
2022-12-25T04:41:45.522Z,6.94
2022-12-25T04:42:48.227Z,7.00
2022-12-25T04:44:22.822Z,7.00
2022-12-25T04:45:25.805Z,7.00
2022-12-25T04:46:28.790Z,7.00
2022-12-25T04:48:03.998Z,7.00
2022-12-25T04:49:06.791Z,7.00
2022-12-25T04:50:09.839Z,6.94
2022-12-25T04:51:44.499Z,6.94
2022-12-25T04:52:47.285Z,7.00
2022-12-25T04:53:50.159Z,7.00
2022-12-25T04:55:24.909Z,7.00
2022-12-25T04:56:27.831Z,7.00
2022-12-25T04:57:37.522Z,7.00
2022-12-25T04:59:12.118Z,7.06
2022-12-25T05:00:12.473Z,7.06
2022-12-25T05:01:15.512Z,7.06
2022-12-25T05:02:19.744Z,7.06
2022-12-25T05:03:56.926Z,7.13
2022-12-25T05:04:59.940Z,7.13
2022-12-25T05:05:41.489Z,7.13
2022-12-25T05:06:44.590Z,7.13
2022-12-25T05:07:47.463Z,7.13
2022-12-25T05:09:22.292Z,7.13
2022-12-25T05:10:25.609Z,7.13
2022-12-25T05:11:28.344Z,7.13
2022-12-25T05:13:03.013Z,7.13
2022-12-25T05:14:05.783Z,7.19
2022-12-25T05:15:09.078Z,7.19
2022-12-25T05:16:44.242Z,7.19
2022-12-25T05:17:47.047Z,7.19
2022-12-25T05:18:50.020Z,7.19
2022-12-25T05:20:24.658Z,7.19
2022-12-25T05:21:35.610Z,7.19
2022-12-25T05:22:38.592Z,7.19
2022-12-25T05:24:13.451Z,7.19
2022-12-25T05:25:16.410Z,7.19
2022-12-25T05:26:19.241Z,7.19
2022-12-25T05:27:54.282Z,7.19
2022-12-25T05:28:57.120Z,7.19
2022-12-25T05:30:00.143Z,7.19
2022-12-25T05:31:35.381Z,7.19
2022-12-25T05:32:38.340Z,7.19
2022-12-25T05:33:41.221Z,7.19
2022-12-25T05:35:16.005Z,7.19
2022-12-25T05:36:18.900Z,7.13
2022-12-25T05:37:21.871Z,7.13
2022-12-25T05:38:56.425Z,7.13
2022-12-25T05:39:59.388Z,7.06
2022-12-25T05:41:02.205Z,7.06
2022-12-25T05:42:41.784Z,7.06
2022-12-25T05:43:44.673Z,7.06
2022-12-25T05:44:47.548Z,7.06
2022-12-25T05:46:22.184Z,7.00
2022-12-25T05:47:25.796Z,7.00
2022-12-25T05:48:28.734Z,7.00
2022-12-25T05:50:03.380Z,7.00
2022-12-25T05:51:06.289Z,7.00
2022-12-25T05:52:09.127Z,7.00
2022-12-25T05:53:52.128Z,7.00
2022-12-25T05:54:55.668Z,7.00
2022-12-25T05:55:58.517Z,7.00
2022-12-25T05:57:33.377Z,7.00
2022-12-25T05:58:36.157Z,6.94
2022-12-25T05:59:39.089Z,6.94
2022-12-25T06:00:12.227Z,6.94
2022-12-25T06:01:15.152Z,6.94
2022-12-25T06:02:19.278Z,6.94
2022-12-25T06:03:56.706Z,6.94
2022-12-25T06:05:07.602Z,6.94
2022-12-25T06:06:10.576Z,6.94
2022-12-25T06:07:45.266Z,6.94
2022-12-25T06:08:48.307Z,6.94
2022-12-25T06:09:51.285Z,6.94
2022-12-25T06:11:25.865Z,6.94
2022-12-25T06:12:28.739Z,6.94
2022-12-25T06:13:31.437Z,7.00
2022-12-25T06:15:06.179Z,7.00
2022-12-25T06:16:08.965Z,6.94
2022-12-25T06:17:18.906Z,6.94
2022-12-25T06:18:53.613Z,6.94
2022-12-25T06:19:56.435Z,6.94
2022-12-25T06:20:59.296Z,6.94
2022-12-25T06:22:34.149Z,6.94
2022-12-25T06:23:37.834Z,6.94
2022-12-25T06:24:41.578Z,6.94
2022-12-25T06:26:16.602Z,6.94
2022-12-25T06:27:19.383Z,6.94
2022-12-25T06:28:22.281Z,6.94
2022-12-25T06:29:57.528Z,6.94
2022-12-25T06:31:00.275Z,6.94
2022-12-25T06:32:03.555Z,6.88
2022-12-25T06:33:38.170Z,6.88
2022-12-25T06:34:41.084Z,6.88
2022-12-25T06:35:44.000Z,6.88
2022-12-25T06:37:18.561Z,6.88
2022-12-25T06:38:21.635Z,6.88
2022-12-25T06:39:24.486Z,6.88
2022-12-25T06:40:59.345Z,6.81
2022-12-25T06:42:02.398Z,6.81
2022-12-25T06:43:05.229Z,6.81
2022-12-25T06:44:40.086Z,6.81
2022-12-25T06:45:42.831Z,6.75
2022-12-25T06:46:46.099Z,6.75
2022-12-25T06:48:20.921Z,6.75
2022-12-25T06:49:23.718Z,6.75
2022-12-25T06:50:26.699Z,6.75
2022-12-25T06:52:01.306Z,6.75
2022-12-25T06:53:04.182Z,6.75
2022-12-25T06:54:14.891Z,6.69
2022-12-25T06:55:49.560Z,6.69
2022-12-25T06:56:52.533Z,6.69
2022-12-25T06:57:55.804Z,6.69
2022-12-25T06:59:30.464Z,6.63
2022-12-25T07:00:11.850Z,6.63
2022-12-25T07:01:15.147Z,6.63
2022-12-25T07:02:19.657Z,6.63
2022-12-25T07:03:55.680Z,6.63
2022-12-25T07:04:58.614Z,6.63
2022-12-25T07:06:01.630Z,6.56
2022-12-25T07:07:43.757Z,6.56
2022-12-25T07:08:46.576Z,6.56
2022-12-25T07:09:49.537Z,6.63
2022-12-25T07:11:24.396Z,6.56
2022-12-25T07:12:27.231Z,6.56
2022-12-25T07:13:30.115Z,6.56
2022-12-25T07:15:10.428Z,6.63
2022-12-25T07:16:13.207Z,6.56
2022-12-25T07:17:16.780Z,6.56
2022-12-25T07:18:51.309Z,6.63
2022-12-25T07:19:54.252Z,6.56
2022-12-25T07:20:57.087Z,6.63
2022-12-25T07:22:31.669Z,6.63
2022-12-25T07:23:34.497Z,6.63
2022-12-25T07:24:37.292Z,6.63
2022-12-25T07:26:17.965Z,6.63
2022-12-25T07:27:20.817Z,6.63
2022-12-25T07:28:23.658Z,6.63
2022-12-25T07:29:58.467Z,6.63
2022-12-25T07:31:01.334Z,6.63
2022-12-25T07:32:05.092Z,6.63
2022-12-25T07:33:39.964Z,6.56
2022-12-25T07:34:42.924Z,6.63
2022-12-25T07:35:45.776Z,6.56
2022-12-25T07:37:25.043Z,6.56
2022-12-25T07:38:27.938Z,6.56
2022-12-25T07:39:30.914Z,6.56
2022-12-25T07:41:05.684Z,6.56
2022-12-25T07:42:08.516Z,6.56
2022-12-25T07:43:17.038Z,6.56
2022-12-25T07:44:51.880Z,6.56
2022-12-25T07:45:54.738Z,6.56
2022-12-25T07:46:58.568Z,6.56
2022-12-25T07:48:41.250Z,6.50
2022-12-25T07:49:44.119Z,6.50
2022-12-25T07:50:47.089Z,6.50
2022-12-25T07:52:21.810Z,6.50
2022-12-25T07:53:33.228Z,6.50
2022-12-25T07:54:36.035Z,6.50
2022-12-25T07:56:10.841Z,6.56
2022-12-25T07:57:13.682Z,6.56
2022-12-25T07:58:23.014Z,6.56
2022-12-25T07:59:58.102Z,6.56
2022-12-25T08:00:12.333Z,6.56
2022-12-25T08:01:15.422Z,6.56
2022-12-25T08:02:20.610Z,6.63
2022-12-25T08:03:58.805Z,6.63
2022-12-25T08:05:02.475Z,6.63
2022-12-25T08:06:05.292Z,6.63
2022-12-25T08:07:40.140Z,6.69
2022-12-25T08:08:49.455Z,6.69
2022-12-25T08:09:52.425Z,6.69
2022-12-25T08:11:27.236Z,6.75
2022-12-25T08:12:30.048Z,6.75
2022-12-25T08:13:33.104Z,6.75
2022-12-25T08:15:07.871Z,6.75
2022-12-25T08:16:10.741Z,6.81
2022-12-25T08:17:14.519Z,6.81
2022-12-25T08:18:49.051Z,6.81
2022-12-25T08:19:52.078Z,6.81
2022-12-25T08:20:54.914Z,6.81
2022-12-25T08:22:29.618Z,6.88
2022-12-25T08:23:32.572Z,6.88
2022-12-25T08:24:35.588Z,6.88
2022-12-25T08:26:10.347Z,6.88
2022-12-25T08:27:13.284Z,6.94
2022-12-25T08:28:16.213Z,6.94
2022-12-25T08:29:50.911Z,6.94
2022-12-25T08:30:53.855Z,6.94
2022-12-25T08:31:57.312Z,7.00
2022-12-25T08:33:32.047Z,7.00
2022-12-25T08:34:35.157Z,7.00
2022-12-25T08:35:38.020Z,7.00
2022-12-25T08:37:12.923Z,7.00
2022-12-25T08:38:15.951Z,7.00
2022-12-25T08:39:18.704Z,7.00
2022-12-25T08:40:53.570Z,7.00
2022-12-25T08:41:56.415Z,7.00
2022-12-25T08:42:59.248Z,7.00
2022-12-25T08:44:33.954Z,7.06
2022-12-25T08:45:36.781Z,7.06
2022-12-25T08:46:41.657Z,7.06
2022-12-25T08:48:16.588Z,7.06
2022-12-25T08:49:19.484Z,7.06
2022-12-25T08:50:23.263Z,7.06
2022-12-25T08:51:57.857Z,7.06
2022-12-25T08:53:00.831Z,7.06
2022-12-25T08:54:03.913Z,7.06
2022-12-25T08:55:38.510Z,7.06
2022-12-25T08:56:41.382Z,7.06
2022-12-25T08:57:50.375Z,7.13
2022-12-25T08:59:25.147Z,7.13
2022-12-25T09:00:12.075Z,7.13
2022-12-25T09:01:15.394Z,7.13
2022-12-25T09:02:19.738Z,7.13
2022-12-25T09:03:56.274Z,7.13
2022-12-25T09:04:59.215Z,7.13
2022-12-25T09:06:02.289Z,7.19
2022-12-25T09:07:37.208Z,7.19
2022-12-25T09:08:46.190Z,7.19
2022-12-25T09:09:51.224Z,7.19
2022-12-25T09:11:25.879Z,7.19
2022-12-25T09:12:28.582Z,7.19
2022-12-25T09:13:31.399Z,7.25
2022-12-25T09:15:06.327Z,7.25
2022-12-25T09:16:09.248Z,7.25
2022-12-25T09:17:12.738Z,7.25
2022-12-25T09:18:47.500Z,7.25
2022-12-25T09:19:50.333Z,7.25
2022-12-25T09:20:53.217Z,7.25
2022-12-25T09:22:27.857Z,7.25
2022-12-25T09:23:30.742Z,7.25
2022-12-25T09:24:33.727Z,7.25
2022-12-25T09:26:08.478Z,7.25
2022-12-25T09:27:11.524Z,7.25
2022-12-25T09:28:14.337Z,7.25
2022-12-25T09:29:57.157Z,7.25
2022-12-25T09:30:59.990Z,7.31
2022-12-25T09:32:03.763Z,7.31
2022-12-25T09:33:38.333Z,7.31
2022-12-25T09:34:41.670Z,7.31
2022-12-25T09:35:44.684Z,7.31
2022-12-25T09:37:20.157Z,7.38
2022-12-25T09:38:22.984Z,7.38
2022-12-25T09:39:25.916Z,7.31
2022-12-25T09:41:09.695Z,7.38
2022-12-25T09:42:12.544Z,7.38
2022-12-25T09:43:15.239Z,7.38
2022-12-25T09:44:50.256Z,7.38
2022-12-25T09:45:53.116Z,7.38
2022-12-25T09:46:56.471Z,7.38
2022-12-25T09:48:31.476Z,7.38
2022-12-25T09:49:34.321Z,7.38
2022-12-25T09:50:37.250Z,7.38
2022-12-25T09:52:12.036Z,7.44
2022-12-25T09:53:14.845Z,7.44
2022-12-25T09:54:17.783Z,7.44
2022-12-25T09:56:00.577Z,7.44
2022-12-25T09:57:03.540Z,7.44
2022-12-25T09:58:06.371Z,7.44
2022-12-25T09:59:41.181Z,7.44
2022-12-25T10:00:12.694Z,7.44
2022-12-25T10:01:15.721Z,7.44
2022-12-25T10:02:20.004Z,7.44
2022-12-25T10:03:57.200Z,7.44
2022-12-25T10:05:00.285Z,7.44
2022-12-25T10:06:03.150Z,7.50
2022-12-25T10:07:38.028Z,7.44
2022-12-25T10:08:41.108Z,7.50
2022-12-25T10:09:43.951Z,7.50
2022-12-25T10:11:18.595Z,7.50
2022-12-25T10:12:21.692Z,7.50
2022-12-25T10:13:24.494Z,7.50
2022-12-25T10:14:59.271Z,7.50
2022-12-25T10:16:02.076Z,7.50
2022-12-25T10:17:05.475Z,7.50
2022-12-25T10:18:40.197Z,7.50
2022-12-25T10:19:43.099Z,7.50
2022-12-25T10:20:46.072Z,7.50
2022-12-25T10:22:27.289Z,7.56
2022-12-25T10:23:30.394Z,7.56
2022-12-25T10:24:33.412Z,7.56
2022-12-25T10:26:08.133Z,7.56
2022-12-25T10:27:11.144Z,7.56
2022-12-25T10:28:13.924Z,7.56
2022-12-25T10:29:48.674Z,7.56
2022-12-25T10:30:51.667Z,7.56
2022-12-25T10:31:55.238Z,7.56
2022-12-25T10:33:29.968Z,7.56
2022-12-25T10:34:32.848Z,7.56
2022-12-25T10:35:36.025Z,7.56
2022-12-25T10:37:10.901Z,7.56
2022-12-25T10:38:13.739Z,7.56
2022-12-25T10:39:16.898Z,7.56
2022-12-25T10:40:58.746Z,7.56
2022-12-25T10:42:01.791Z,7.56
2022-12-25T10:43:04.567Z,7.56
2022-12-25T10:44:39.434Z,7.56
2022-12-25T10:45:42.333Z,7.56
2022-12-25T10:46:45.467Z,7.56
2022-12-25T10:48:34.525Z,7.56
2022-12-25T10:49:37.507Z,7.56
2022-12-25T10:50:40.356Z,7.56
2022-12-25T10:52:15.082Z,7.56
2022-12-25T10:53:18.263Z,7.56
2022-12-25T10:54:21.194Z,7.56
2022-12-25T10:56:03.384Z,7.56
2022-12-25T10:57:06.513Z,7.56
2022-12-25T10:58:09.706Z,7.63
2022-12-25T10:59:44.503Z,7.56
2022-12-25T11:00:12.198Z,7.56
2022-12-25T11:01:14.949Z,7.63
2022-12-25T11:02:18.881Z,7.63
2022-12-25T11:03:56.698Z,7.56
2022-12-25T11:04:59.856Z,7.63
2022-12-25T11:06:02.893Z,7.63
2022-12-25T11:07:37.764Z,7.63
2022-12-25T11:08:40.749Z,7.63
2022-12-25T11:09:43.679Z,7.63
2022-12-25T11:11:26.347Z,7.63
2022-12-25T11:12:29.210Z,7.63
2022-12-25T11:13:32.268Z,7.63
2022-12-25T11:15:07.177Z,7.63
2022-12-25T11:16:09.869Z,7.63
2022-12-25T11:17:13.575Z,7.63
2022-12-25T11:18:48.492Z,7.63
2022-12-25T11:19:51.371Z,7.63
2022-12-25T11:20:54.611Z,7.63
2022-12-25T11:22:29.466Z,7.69
2022-12-25T11:23:32.502Z,7.69
2022-12-25T11:24:35.620Z,7.69
2022-12-25T11:26:10.574Z,7.69
2022-12-25T11:27:13.462Z,7.69
2022-12-25T11:28:16.510Z,7.69
2022-12-25T11:29:51.252Z,7.69
2022-12-25T11:31:01.960Z,7.69
2022-12-25T11:32:05.445Z,7.69
2022-12-25T11:33:40.256Z,7.75
2022-12-25T11:34:43.119Z,7.75
2022-12-25T11:35:46.113Z,7.75
2022-12-25T11:37:20.854Z,7.75
2022-12-25T11:38:23.927Z,7.75
2022-12-25T11:39:26.809Z,7.75
2022-12-25T11:41:01.493Z,7.75
2022-12-25T11:42:04.435Z,7.75
2022-12-25T11:43:08.291Z,7.75
2022-12-25T11:44:43.532Z,7.75
2022-12-25T11:45:46.415Z,7.81
2022-12-25T11:46:49.549Z,7.88
2022-12-25T11:48:24.944Z,7.88
2022-12-25T11:49:27.786Z,7.88
2022-12-25T11:50:41.410Z,7.88
2022-12-25T11:52:16.238Z,7.94
2022-12-25T11:53:19.221Z,7.94
2022-12-25T11:54:22.271Z,7.94
2022-12-25T11:55:57.762Z,8.00
2022-12-25T11:57:00.673Z,7.94
2022-12-25T11:58:03.535Z,7.94
2022-12-25T11:59:38.327Z,7.94
2022-12-25T12:00:11.795Z,7.94
2022-12-25T12:01:14.527Z,7.94
2022-12-25T12:02:18.259Z,7.94
2022-12-25T12:03:55.770Z,7.94
2022-12-25T12:05:05.815Z,7.94
2022-12-25T12:06:08.825Z,7.94
2022-12-25T12:07:43.654Z,7.94
2022-12-25T12:08:46.600Z,7.94
2022-12-25T12:09:49.513Z,7.94
2022-12-25T12:11:24.308Z,7.94
2022-12-25T12:12:27.323Z,7.94
2022-12-25T12:13:38.406Z,7.94
2022-12-25T12:15:13.073Z,8.00
2022-12-25T12:16:16.038Z,8.00
2022-12-25T12:17:19.148Z,8.00
2022-12-25T12:18:53.944Z,8.00
2022-12-25T12:19:56.900Z,8.00
2022-12-25T12:20:59.917Z,8.00
2022-12-25T12:22:34.738Z,8.00
2022-12-25T12:23:37.503Z,8.00
2022-12-25T12:24:40.421Z,8.06
2022-12-25T12:26:15.391Z,8.06
2022-12-25T12:27:18.423Z,8.06
2022-12-25T12:28:21.372Z,8.06
2022-12-25T12:29:56.110Z,8.06
2022-12-25T12:30:59.028Z,8.06
2022-12-25T12:32:02.389Z,8.06
2022-12-25T12:33:37.318Z,8.06
2022-12-25T12:34:40.978Z,8.13
2022-12-25T12:35:43.883Z,8.13
2022-12-25T12:37:24.872Z,8.13
2022-12-25T12:38:28.014Z,8.13
2022-12-25T12:39:31.050Z,8.19
2022-12-25T12:41:05.859Z,8.19
2022-12-25T12:42:08.688Z,8.19
2022-12-25T12:43:11.692Z,8.19
2022-12-25T12:44:46.374Z,8.25
2022-12-25T12:45:49.316Z,8.19
2022-12-25T12:46:54.682Z,8.25
2022-12-25T12:48:29.485Z,8.25
2022-12-25T12:49:32.503Z,8.25
2022-12-25T12:50:35.465Z,8.25
2022-12-25T12:52:10.356Z,8.25
2022-12-25T12:53:13.354Z,8.25
2022-12-25T12:54:16.445Z,8.25
2022-12-25T12:55:51.168Z,8.31
2022-12-25T12:56:54.005Z,8.25
2022-12-25T12:57:56.980Z,8.31
2022-12-25T12:59:31.697Z,8.31
2022-12-25T13:00:12.439Z,8.31
2022-12-25T13:01:15.574Z,8.31
2022-12-25T13:02:19.612Z,8.31
2022-12-25T13:03:56.197Z,8.31
2022-12-25T13:04:59.189Z,8.31
2022-12-25T13:06:09.390Z,8.31
2022-12-25T13:07:44.368Z,8.31
2022-12-25T13:08:47.252Z,8.31
2022-12-25T13:09:50.225Z,8.31
2022-12-25T13:11:25.226Z,8.31
2022-12-25T13:12:28.027Z,8.31
2022-12-25T13:13:30.917Z,8.31
2022-12-25T13:15:05.632Z,8.31
2022-12-25T13:16:08.565Z,8.31
2022-12-25T13:17:11.810Z,8.31
2022-12-25T13:18:46.334Z,8.31
2022-12-25T13:19:49.222Z,8.31
2022-12-25T13:20:52.050Z,8.31
2022-12-25T13:22:26.786Z,8.31
2022-12-25T13:23:38.414Z,8.31
2022-12-25T13:24:41.323Z,8.31
2022-12-25T13:26:16.212Z,8.31
2022-12-25T13:27:19.044Z,8.31
2022-12-25T13:28:21.936Z,8.31
2022-12-25T13:29:57.885Z,8.31
2022-12-25T13:31:00.824Z,8.25
2022-12-25T13:32:04.110Z,8.25
2022-12-25T13:33:39.359Z,8.25
2022-12-25T13:34:42.207Z,8.25
2022-12-25T13:35:45.067Z,8.25
2022-12-25T13:37:19.745Z,8.25
2022-12-25T13:38:22.712Z,8.25
2022-12-25T13:39:25.619Z,8.25
2022-12-25T13:41:00.349Z,8.25
2022-12-25T13:42:03.161Z,8.25
2022-12-25T13:43:06.454Z,8.25
2022-12-25T13:44:41.263Z,8.25
2022-12-25T13:45:44.399Z,8.31
2022-12-25T13:46:48.028Z,8.31
2022-12-25T13:48:29.882Z,8.25
2022-12-25T13:49:33.002Z,8.25
2022-12-25T13:50:36.909Z,8.25
2022-12-25T13:52:12.261Z,8.25
2022-12-25T13:53:15.180Z,8.25
2022-12-25T13:54:17.957Z,8.25
2022-12-25T13:55:52.708Z,8.31
2022-12-25T13:56:55.450Z,8.25
2022-12-25T13:57:58.392Z,8.25
2022-12-25T13:59:33.190Z,8.25
2022-12-25T14:00:11.978Z,8.25
2022-12-25T14:01:14.980Z,8.25
2022-12-25T14:02:19.170Z,8.25
2022-12-25T14:03:55.683Z,8.25
2022-12-25T14:04:58.756Z,8.25
2022-12-25T14:06:01.756Z,8.25
2022-12-25T14:07:36.565Z,8.31
2022-12-25T14:08:39.516Z,8.31
2022-12-25T14:09:42.373Z,8.31
2022-12-25T14:11:17.141Z,8.31
2022-12-25T14:12:19.955Z,8.31
2022-12-25T14:13:22.932Z,8.31
2022-12-25T14:14:57.628Z,8.31
2022-12-25T14:16:00.632Z,8.31
2022-12-25T14:17:03.871Z,8.31
2022-12-25T14:18:38.779Z,8.31
2022-12-25T14:19:41.647Z,8.31
2022-12-25T14:20:52.113Z,8.31
2022-12-25T14:22:26.817Z,8.31
2022-12-25T14:23:29.731Z,8.31
2022-12-25T14:24:32.680Z,8.31
2022-12-25T14:26:07.534Z,8.31
2022-12-25T14:27:10.426Z,8.31
2022-12-25T14:28:13.284Z,8.31
2022-12-25T14:30:03.073Z,8.31
2022-12-25T14:31:06.240Z,8.31
2022-12-25T14:32:09.825Z,8.31
2022-12-25T14:33:44.528Z,8.31
2022-12-25T14:34:47.423Z,8.31
2022-12-25T14:35:58.003Z,8.31
2022-12-25T14:37:32.786Z,8.31
2022-12-25T14:38:35.707Z,8.31
2022-12-25T14:39:38.459Z,8.31
2022-12-25T14:41:13.204Z,8.31
2022-12-25T14:42:23.319Z,8.31
2022-12-25T14:43:26.221Z,8.31
2022-12-25T14:45:00.912Z,8.31
2022-12-25T14:46:03.941Z,8.31
2022-12-25T14:47:07.528Z,8.31
2022-12-25T14:48:42.182Z,8.25
2022-12-25T14:49:45.077Z,8.31
2022-12-25T14:50:47.938Z,8.31
2022-12-25T14:52:22.498Z,8.25
2022-12-25T14:53:25.522Z,8.25
2022-12-25T14:54:28.413Z,8.25
2022-12-25T14:56:03.111Z,8.25
2022-12-25T14:57:06.286Z,8.25
2022-12-25T14:58:09.227Z,8.25
2022-12-25T14:59:44.016Z,8.25
2022-12-25T15:00:12.745Z,8.25
2022-12-25T15:01:15.681Z,8.25
2022-12-25T15:02:20.241Z,8.25
2022-12-25T15:03:57.745Z,8.25
2022-12-25T15:05:00.673Z,8.25
2022-12-25T15:06:03.627Z,8.25
2022-12-25T15:07:39.100Z,8.25
2022-12-25T15:08:41.939Z,8.31
2022-12-25T15:09:44.729Z,8.25
2022-12-25T15:12:20.452Z,8.25
2022-12-25T15:13:23.214Z,8.25
2022-12-25T15:14:26.132Z,8.25
2022-12-25T15:16:01.146Z,8.25
2022-12-25T15:17:04.750Z,8.25
2022-12-25T15:18:07.561Z,8.25
2022-12-25T15:19:42.452Z,8.19
2022-12-25T15:20:45.308Z,8.19
2022-12-25T15:21:48.179Z,8.19
2022-12-25T15:24:01.137Z,8.19
2022-12-25T15:25:04.083Z,8.19
2022-12-25T15:26:11.724Z,8.19
2022-12-25T15:27:47.251Z,8.19
2022-12-25T15:28:56.984Z,8.19
2022-12-25T15:30:46.038Z,8.19
2022-12-25T15:32:21.217Z,8.19
2022-12-25T15:33:24.407Z,8.19
2022-12-25T15:34:35.476Z,8.19
2022-12-25T15:36:10.221Z,8.19
2022-12-25T15:37:13.006Z,8.19
2022-12-25T15:38:16.006Z,8.19
2022-12-25T15:39:50.822Z,8.19
2022-12-25T15:40:58.280Z,8.19
2022-12-25T15:42:01.080Z,8.19
2022-12-25T15:43:46.021Z,8.19
2022-12-25T15:44:49.056Z,8.19
2022-12-25T15:45:51.995Z,8.19
2022-12-25T15:47:27.591Z,8.19
2022-12-25T15:48:30.478Z,8.19
2022-12-25T15:49:33.241Z,8.19
2022-12-25T15:51:09.302Z,8.19
2022-12-25T15:52:12.098Z,8.19
2022-12-25T15:53:15.140Z,8.19
2022-12-25T15:54:49.922Z,8.19
2022-12-25T15:55:52.840Z,8.19
2022-12-25T15:56:55.628Z,8.19
2022-12-25T15:58:30.321Z,8.19
2022-12-25T15:59:33.292Z,8.19
2022-12-25T16:00:12.164Z,8.19
2022-12-25T16:01:14.893Z,8.19
2022-12-25T16:02:18.887Z,8.13
2022-12-25T16:03:56.579Z,8.13
2022-12-25T16:04:59.549Z,8.13
2022-12-25T16:06:07.843Z,8.13
2022-12-25T16:07:42.463Z,8.13
2022-12-25T16:08:45.329Z,8.13
2022-12-25T16:09:48.117Z,8.13
2022-12-25T16:11:25.084Z,8.13
2022-12-25T16:12:27.961Z,8.13
2022-12-25T16:13:30.758Z,8.13
2022-12-25T16:15:05.773Z,8.13
2022-12-25T16:16:08.614Z,8.13
2022-12-25T16:17:12.086Z,8.13
2022-12-25T16:18:47.648Z,8.13